FHJHU LFLL-LFLL
Flight info
| Callsign | FHJHU |
|---|---|
| Flight time | 0h 15m |
| Altitude | 14000 |
| Route | REPSI |
| Aircraft | E55P/M-SDGRWY/L |
Departure
| Time | 2026-05-04 08:17 |
|---|---|
| Airport | Lyon Saint-Exupéry Airport (LFLL) |
Arrival
| Time | 2026-05-04 08:33 |
|---|---|
| Airport | Lyon Saint-Exupéry Airport (LFLL) |
| Time | Latitude | Longitude | Altitude | Speed | Heading |
|---|---|---|---|---|---|
| 2026-05-04 08:10 | 45.72886 | 5.08092 | 824 ft | 0 kts | 355° |
| 2026-05-04 08:12 | 45.72887 | 5.08092 | 824 ft | 1 kts | 355° |
| 2026-05-04 08:12 | 45.72896 | 5.08091 | 824 ft | 2 kts | 355° |
| 2026-05-04 08:12 | 45.72918 | 5.08094 | 824 ft | 3 kts | 47° |
| 2026-05-04 08:12 | 45.72923 | 5.08146 | 824 ft | 4 kts | 84° |
| 2026-05-04 08:13 | 45.72928 | 5.08209 | 824 ft | 9 kts | 84° |
| 2026-05-04 08:13 | 45.72930 | 5.08311 | 824 ft | 10 kts | 107° |
| 2026-05-04 08:13 | 45.72866 | 5.08347 | 824 ft | 11 kts | 174° |
| 2026-05-04 08:13 | 45.72753 | 5.08360 | 824 ft | 21 kts | 176° |
| 2026-05-04 08:14 | 45.72573 | 5.08382 | 824 ft | 28 kts | 174° |
| 2026-05-04 08:14 | 45.72375 | 5.08409 | 824 ft | 28 kts | 173° |
| 2026-05-04 08:14 | 45.72245 | 5.08424 | 824 ft | 28 kts | 177° |
| 2026-05-04 08:16 | 45.72432 | 5.09312 | 824 ft | 74 kts | 353° |
| 2026-05-04 08:16 | 45.73209 | 5.09220 | 886 ft | 140 kts | 355° |
| 2026-05-04 08:16 | 45.74100 | 5.09515 | 1253 ft | 130 kts | 45° |
| 2026-05-04 08:17 | 45.74357 | 5.10711 | 1368 ft | 131 kts | 110° |
| 2026-05-04 08:17 | 45.73751 | 5.11594 | 1569 ft | 131 kts | 159° |
| 2026-05-04 08:17 | 45.73158 | 5.11746 | 1714 ft | 133 kts | 180° |
| 2026-05-04 08:17 | 45.71911 | 5.11664 | 2100 ft | 131 kts | 184° |
| 2026-05-04 08:19 | 45.66161 | 5.08950 | 2007 ft | 159 kts | 287° |
| 2026-05-04 08:19 | 45.66901 | 5.07973 | 1864 ft | 143 kts | 343° |
| 2026-05-04 08:20 | 45.67853 | 5.08005 | 1557 ft | 135 kts | 23° |
| 2026-05-04 08:20 | 45.68671 | 5.08535 | 1364 ft | 120 kts | 28° |
| 2026-05-04 08:20 | 45.69167 | 5.08831 | 1279 ft | 115 kts | 21° |
| 2026-05-04 08:20 | 45.70169 | 5.09363 | 1055 ft | 116 kts | 18° |
| 2026-05-04 08:21 | 45.70972 | 5.09481 | 899 ft | 117 kts | 358° |
| 2026-05-04 08:21 | 45.71746 | 5.09392 | 826 ft | 103 kts | 356° |
| 2026-05-04 08:21 | 45.72406 | 5.09315 | 824 ft | 100 kts | 356° |
| 2026-05-04 08:21 | 45.73285 | 5.09205 | 1025 ft | 145 kts | 358° |
| 2026-05-04 08:22 | 45.74335 | 5.09557 | 1460 ft | 173 kts | 38° |
| 2026-05-04 08:22 | 45.74945 | 5.11000 | 1837 ft | 177 kts | 86° |
| 2026-05-04 08:24 | 45.68339 | 5.14681 | 2060 ft | 159 kts | 174° |
| 2026-05-04 08:24 | 45.67291 | 5.14238 | 2038 ft | 163 kts | 217° |
| 2026-05-04 08:24 | 45.66750 | 5.12796 | 1923 ft | 172 kts | 258° |
| 2026-05-04 08:24 | 45.66954 | 5.11155 | 1855 ft | 173 kts | 297° |
| 2026-05-04 08:25 | 45.67892 | 5.10070 | 1622 ft | 176 kts | 337° |
| 2026-05-04 08:25 | 45.68997 | 5.09719 | 1363 ft | 155 kts | 355° |
| 2026-05-04 08:25 | 45.70018 | 5.09608 | 1085 ft | 140 kts | 356° |
| 2026-05-04 08:25 | 45.70926 | 5.09505 | 897 ft | 123 kts | 356° |
| 2026-05-04 08:26 | 45.71714 | 5.09403 | 827 ft | 102 kts | 356° |
| 2026-05-04 08:27 | 45.71117 | 5.12885 | 2027 ft | 158 kts | 170° |
| 2026-05-04 08:28 | 45.70018 | 5.13116 | 2051 ft | 157 kts | 171° |
| 2026-05-04 08:28 | 45.68937 | 5.13348 | 2041 ft | 159 kts | 170° |
| 2026-05-04 08:28 | 45.67861 | 5.13624 | 2149 ft | 152 kts | 168° |
| 2026-05-04 08:28 | 45.66817 | 5.13811 | 2130 ft | 155 kts | 175° |
| 2026-05-04 08:29 | 45.65738 | 5.13899 | 2126 ft | 156 kts | 176° |
| 2026-05-04 08:29 | 45.64730 | 5.13375 | 2100 ft | 157 kts | 219° |
| 2026-05-04 08:29 | 45.64268 | 5.12031 | 2029 ft | 154 kts | 264° |
| 2026-05-04 08:31 | 45.69841 | 5.09637 | 1111 ft | 115 kts | 356° |
| 2026-05-04 08:33 | 45.72969 | 5.08790 | 824 ft | 20 kts | 265° |
| 2026-05-04 08:33 | 45.72955 | 5.08584 | 824 ft | 20 kts | 264° |